createdAt,value
2018-08-10T00:00:59.873Z,16.10
2018-08-10T00:03:28.454Z,16.10
2018-08-10T00:05:57.033Z,16.10
2018-08-10T00:08:25.604Z,16.10
2018-08-10T00:10:54.156Z,16.00
2018-08-10T00:13:22.724Z,15.90
2018-08-10T00:15:51.344Z,16.00
2018-08-10T00:18:19.906Z,15.90
2018-08-10T00:20:48.508Z,15.90
2018-08-10T00:23:17.062Z,15.90
2018-08-10T00:25:45.617Z,15.90
2018-08-10T00:28:14.181Z,15.90
2018-08-10T00:30:42.808Z,15.80
2018-08-10T00:33:11.349Z,15.80
2018-08-10T00:35:39.900Z,15.80
2018-08-10T00:38:08.431Z,15.70
2018-08-10T00:40:37.030Z,15.70
2018-08-10T00:43:05.598Z,15.60
2018-08-10T00:45:34.106Z,15.60
2018-08-10T00:48:02.710Z,15.50
2018-08-10T00:50:31.272Z,15.50
2018-08-10T00:52:59.862Z,15.50
2018-08-10T00:55:28.439Z,15.40
2018-08-10T00:57:56.980Z,15.40
2018-08-10T01:00:25.586Z,15.40
2018-08-10T01:02:54.309Z,15.30
2018-08-10T01:05:22.900Z,15.30
2018-08-10T01:07:52.114Z,15.30
2018-08-10T01:10:21.119Z,15.30
2018-08-10T01:12:49.750Z,15.20
2018-08-10T01:15:18.705Z,15.20
2018-08-10T01:17:47.493Z,15.20
2018-08-10T01:20:20.290Z,15.20
2018-08-10T01:22:54.183Z,15.10
2018-08-10T01:25:23.977Z,15.10
2018-08-10T01:27:56.152Z,15.10
2018-08-10T01:30:25.698Z,15.10
2018-08-10T01:32:54.427Z,15.10
2018-08-10T01:35:23.720Z,15.10
2018-08-10T01:37:52.376Z,15.10
2018-08-10T01:40:21.039Z,15.00
2018-08-10T01:42:49.704Z,15.00
2018-08-10T01:45:18.427Z,15.00
2018-08-10T01:47:47.133Z,15.00
2018-08-10T01:50:15.777Z,15.00
2018-08-10T01:52:44.383Z,15.00
2018-08-10T01:55:13.165Z,15.00
2018-08-10T01:57:41.814Z,15.00
2018-08-10T02:00:10.785Z,15.00
2018-08-10T02:02:39.443Z,14.90
2018-08-10T02:05:09.658Z,14.90
2018-08-10T02:07:39.195Z,14.90
2018-08-10T02:10:10.903Z,14.90
2018-08-10T02:12:40.246Z,14.90
2018-08-10T02:15:11.851Z,14.90
2018-08-10T02:17:40.504Z,14.90
2018-08-10T02:20:11.195Z,14.90
2018-08-10T02:22:39.856Z,14.90
2018-08-10T02:25:10.104Z,14.90
2018-08-10T02:27:38.813Z,14.90
2018-08-10T02:30:09.075Z,14.90
2018-08-10T02:32:37.889Z,14.90
2018-08-10T02:35:07.126Z,14.80
2018-08-10T02:37:36.013Z,14.80
2018-08-10T02:40:06.006Z,14.70
2018-08-10T02:42:34.594Z,14.70
2018-08-10T02:45:03.274Z,14.70
2018-08-10T02:47:31.887Z,14.70
2018-08-10T02:50:00.504Z,14.70
2018-08-10T02:52:29.125Z,14.70
2018-08-10T02:54:57.693Z,14.60
2018-08-10T02:57:26.285Z,14.70
2018-08-10T02:59:54.861Z,14.60
2018-08-10T03:02:23.464Z,14.60
2018-08-10T03:04:52.132Z,14.60
2018-08-10T03:07:20.718Z,14.60
2018-08-10T03:09:49.288Z,14.60
2018-08-10T03:12:17.886Z,14.60
2018-08-10T03:14:46.486Z,14.60
2018-08-10T03:17:15.070Z,14.60
2018-08-10T03:19:44.292Z,14.60
2018-08-10T03:22:12.990Z,14.60
2018-08-10T03:24:41.546Z,14.60
2018-08-10T03:27:10.181Z,14.60
2018-08-10T03:29:38.728Z,14.60
2018-08-10T03:32:07.370Z,14.50
2018-08-10T03:34:35.994Z,14.50
2018-08-10T03:37:04.637Z,14.50
2018-08-10T03:39:33.234Z,14.50
2018-08-10T03:42:01.823Z,14.50
2018-08-10T03:44:30.450Z,14.50
2018-08-10T03:46:59.041Z,14.50
2018-08-10T03:49:27.637Z,14.50
2018-08-10T03:51:56.281Z,14.50
2018-08-10T03:54:24.865Z,14.40
2018-08-10T03:56:53.491Z,14.50
2018-08-10T03:59:22.120Z,14.50
2018-08-10T04:01:50.692Z,14.50
2018-08-10T04:04:19.322Z,14.40
2018-08-10T04:06:47.891Z,14.50
2018-08-10T04:09:16.522Z,14.50
2018-08-10T04:11:45.128Z,14.50
2018-08-10T04:14:13.696Z,14.40
2018-08-10T04:16:42.342Z,14.40
2018-08-10T04:19:10.904Z,14.40
2018-08-10T04:21:39.489Z,14.40
2018-08-10T04:24:08.117Z,14.30
2018-08-10T04:26:37.014Z,14.30
2018-08-10T04:29:05.731Z,14.30
2018-08-10T04:31:34.311Z,14.20
2018-08-10T04:34:02.874Z,14.20
2018-08-10T04:36:31.429Z,14.20
2018-08-10T04:39:00.005Z,14.20
2018-08-10T04:41:28.604Z,14.20
2018-08-10T04:43:57.177Z,14.20
2018-08-10T04:46:25.809Z,14.20
2018-08-10T04:48:55.012Z,14.20
2018-08-10T04:51:23.576Z,14.20
2018-08-10T04:53:52.128Z,14.20
2018-08-10T04:56:20.716Z,14.20
2018-08-10T04:58:49.332Z,14.30
2018-08-10T05:01:17.909Z,14.20
2018-08-10T05:03:46.563Z,14.20
2018-08-10T05:06:15.139Z,14.20
2018-08-10T05:08:43.717Z,14.20
2018-08-10T05:11:12.353Z,14.20
2018-08-10T05:13:40.896Z,14.20
2018-08-10T05:16:09.479Z,14.20
2018-08-10T05:18:38.098Z,14.20
2018-08-10T05:21:06.726Z,14.30
2018-08-10T05:23:35.301Z,14.30
2018-08-10T05:26:03.882Z,14.30
2018-08-10T05:28:32.458Z,14.40
2018-08-10T05:31:00.978Z,14.40
2018-08-10T05:33:29.915Z,14.50
2018-08-10T05:35:58.518Z,14.60
2018-08-10T05:38:27.133Z,14.60
2018-08-10T05:40:55.744Z,14.60
2018-08-10T05:43:24.324Z,14.60
2018-08-10T05:45:52.890Z,14.70
2018-08-10T05:48:21.429Z,14.80
2018-08-10T05:50:50.055Z,14.80
2018-08-10T05:53:18.561Z,14.80
2018-08-10T05:55:47.145Z,14.90
2018-08-10T05:58:15.729Z,14.90
2018-08-10T06:00:44.301Z,14.90
2018-08-10T06:03:12.887Z,15.10
2018-08-10T06:05:41.448Z,15.10
2018-08-10T06:08:10.052Z,15.20
2018-08-10T06:10:38.694Z,15.30
2018-08-10T06:13:07.331Z,15.30
2018-08-10T06:15:35.958Z,15.30
2018-08-10T06:18:04.930Z,15.40
2018-08-10T06:20:33.426Z,15.50
2018-08-10T06:23:02.141Z,15.50
2018-08-10T06:25:30.619Z,15.40
2018-08-10T06:27:59.243Z,15.50
2018-08-10T06:30:27.849Z,15.70
2018-08-10T06:32:56.385Z,15.80
2018-08-10T06:35:24.963Z,15.90
2018-08-10T06:37:53.623Z,15.90
2018-08-10T06:40:22.572Z,15.90
2018-08-10T06:42:51.145Z,16.00
2018-08-10T06:45:19.823Z,16.10
2018-08-10T06:47:48.364Z,16.20
2018-08-10T06:50:16.979Z,16.30
2018-08-10T06:52:45.594Z,16.30
2018-08-10T06:55:14.224Z,16.30
2018-08-10T06:57:42.898Z,16.30
2018-08-10T07:00:11.560Z,16.40
2018-08-10T07:02:40.286Z,16.50
2018-08-10T07:05:09.390Z,16.50
2018-08-10T07:07:38.263Z,16.60
2018-08-10T07:10:07.657Z,16.70
2018-08-10T07:12:36.164Z,16.70
2018-08-10T07:15:04.840Z,16.80
2018-08-10T07:17:33.451Z,16.90
2018-08-10T07:20:02.017Z,17.00
2018-08-10T07:22:30.663Z,17.10
2018-08-10T07:24:59.339Z,17.10
2018-08-10T07:27:27.933Z,17.20
2018-08-10T07:29:57.080Z,17.20
2018-08-10T07:32:25.635Z,17.20
2018-08-10T07:34:54.236Z,17.10
2018-08-10T07:37:22.928Z,17.20
2018-08-10T07:39:51.616Z,17.20
2018-08-10T07:42:20.313Z,17.20
2018-08-10T07:44:48.904Z,17.20
2018-08-10T07:47:17.547Z,17.30
2018-08-10T07:49:46.133Z,17.30
2018-08-10T07:52:14.798Z,17.20
2018-08-10T07:54:43.387Z,17.30
2018-08-10T07:57:12.005Z,17.50
2018-08-10T07:59:40.609Z,17.50
2018-08-10T08:02:09.270Z,17.50
2018-08-10T08:04:37.846Z,17.60
2018-08-10T08:07:06.847Z,17.70
2018-08-10T08:09:35.502Z,17.90
2018-08-10T08:12:04.155Z,18.10
2018-08-10T08:14:32.759Z,18.10
2018-08-10T08:17:01.419Z,18.20
2018-08-10T08:19:30.075Z,18.30
2018-08-10T08:22:12.207Z,18.30
2018-08-10T08:24:41.598Z,18.40
2018-08-10T08:27:10.768Z,18.60
2018-08-10T08:29:39.435Z,18.70
2018-08-10T08:32:08.173Z,18.70
2018-08-10T08:34:36.883Z,18.70
2018-08-10T08:37:05.774Z,18.80
2018-08-10T08:39:46.350Z,18.80
2018-08-10T08:42:15.064Z,18.80
2018-08-10T08:46:50.196Z,19.00
2018-08-10T08:49:18.755Z,19.20
2018-08-10T08:51:47.508Z,19.30
2018-08-10T08:54:59.894Z,19.20
2018-08-10T08:57:28.449Z,19.30
2018-08-10T08:59:57.070Z,19.40
2018-08-10T09:02:25.736Z,19.40
2018-08-10T09:05:05.706Z,19.50
2018-08-10T09:07:34.660Z,19.50
2018-08-10T09:10:05.346Z,19.60
2018-08-10T09:12:34.081Z,19.70
2018-08-10T09:15:05.354Z,19.70
2018-08-10T09:17:34.093Z,19.80
2018-08-10T09:20:02.681Z,19.80
2018-08-10T09:22:31.615Z,19.90
2018-08-10T09:25:00.290Z,19.90
2018-08-10T09:27:28.921Z,20.00
2018-08-10T09:29:57.539Z,20.10
2018-08-10T09:32:26.181Z,20.20
2018-08-10T09:34:54.823Z,20.20
2018-08-10T09:37:23.467Z,20.20
2018-08-10T09:39:52.095Z,20.30
2018-08-10T09:42:20.810Z,20.50
2018-08-10T09:44:49.529Z,20.80
2018-08-10T09:47:18.169Z,21.00
2018-08-10T09:49:48.030Z,20.80
2018-08-10T09:52:16.696Z,20.60
2018-08-10T09:55:28.562Z,20.50
2018-08-10T09:57:59.561Z,20.30
2018-08-10T10:00:33.431Z,20.10
2018-08-10T10:03:07.454Z,20.10
2018-08-10T10:05:36.123Z,20.10
2018-08-10T10:08:05.003Z,20.30
2018-08-10T10:10:34.300Z,20.60
2018-08-10T10:13:02.887Z,20.80
2018-08-10T10:15:31.597Z,21.20
2018-08-10T10:18:00.218Z,21.40
2018-08-10T10:20:28.949Z,21.10
2018-08-10T10:22:57.715Z,20.90
2018-08-10T10:25:26.385Z,20.50
2018-08-10T10:27:55.020Z,20.30
2018-08-10T10:30:23.597Z,20.50
2018-08-10T10:32:52.238Z,20.70
2018-08-10T10:35:20.860Z,20.90
2018-08-10T10:37:49.469Z,21.10
2018-08-10T10:40:18.016Z,21.10
2018-08-10T10:42:46.685Z,21.40
2018-08-10T10:45:15.872Z,21.50
2018-08-10T10:47:45.679Z,21.60
2018-08-10T10:50:14.842Z,21.80
2018-08-10T10:52:43.738Z,22.00
2018-08-10T10:55:12.625Z,22.00
2018-08-10T10:57:41.813Z,21.70
2018-08-10T11:00:14.536Z,21.40
2018-08-10T11:02:43.339Z,21.30
2018-08-10T11:05:11.978Z,21.50
2018-08-10T11:07:40.661Z,21.80
2018-08-10T11:10:10.768Z,22.20
2018-08-10T11:12:39.633Z,22.10
2018-08-10T11:15:09.373Z,22.20
2018-08-10T11:17:38.125Z,22.50
2018-08-10T11:20:07.927Z,22.60
2018-08-10T11:22:36.700Z,22.80
2018-08-10T11:25:06.525Z,22.80
2018-08-10T11:27:35.098Z,23.00
2018-08-10T11:30:04.188Z,23.10
2018-08-10T11:32:32.845Z,22.90
2018-08-10T11:35:01.459Z,22.30
2018-08-10T11:37:30.083Z,22.00
2018-08-10T11:39:58.708Z,21.80
2018-08-10T11:42:27.393Z,21.70
2018-08-10T11:44:56.040Z,21.70
2018-08-10T11:47:24.687Z,22.10
2018-08-10T11:49:53.373Z,22.20
2018-08-10T11:52:22.076Z,22.50
2018-08-10T11:54:50.675Z,23.00
2018-08-10T11:57:19.432Z,23.20
2018-08-10T11:59:48.044Z,23.30
2018-08-10T12:02:16.663Z,23.30
2018-08-10T12:04:45.827Z,23.40
2018-08-10T12:07:14.645Z,23.60
2018-08-10T12:09:43.265Z,23.60
2018-08-10T12:12:11.960Z,23.70
2018-08-10T12:14:40.670Z,23.90
2018-08-10T12:17:09.338Z,24.00
2018-08-10T12:19:38.049Z,23.80
2018-08-10T12:22:06.724Z,23.40
2018-08-10T12:24:35.446Z,23.20
2018-08-10T12:27:04.103Z,23.40
2018-08-10T12:29:32.693Z,23.60
2018-08-10T12:32:02.059Z,23.50
2018-08-10T12:34:30.786Z,23.30
2018-08-10T12:36:59.539Z,23.00
2018-08-10T12:39:28.229Z,23.10
2018-08-10T12:41:56.815Z,23.50
2018-08-10T12:44:25.423Z,23.90
2018-08-10T12:46:54.217Z,24.20
2018-08-10T12:49:22.940Z,24.40
2018-08-10T12:51:51.575Z,24.30
2018-08-10T12:54:20.353Z,24.30
2018-08-10T12:56:49.072Z,24.70
2018-08-10T13:00:44.743Z,25.00
2018-08-10T13:03:13.349Z,25.10
2018-08-10T13:05:41.940Z,25.20
2018-08-10T13:08:10.715Z,25.30
2018-08-10T13:10:39.453Z,25.20
2018-08-10T13:13:08.025Z,25.30
2018-08-10T13:15:36.710Z,25.10
2018-08-10T13:18:05.495Z,25.10
2018-08-10T13:20:34.416Z,25.20
2018-08-10T13:23:03.113Z,25.00
2018-08-10T13:25:31.915Z,24.50
2018-08-10T13:28:00.597Z,24.10
2018-08-10T13:30:29.348Z,23.80
2018-08-10T13:32:58.046Z,23.70
2018-08-10T13:35:26.735Z,24.30
2018-08-10T13:37:55.408Z,24.60
2018-08-10T13:40:24.079Z,24.60
2018-08-10T13:42:52.756Z,24.50
2018-08-10T13:45:22.382Z,24.60
2018-08-10T13:47:51.020Z,24.50
2018-08-10T13:50:19.762Z,24.30
2018-08-10T13:52:48.453Z,24.20
2018-08-10T13:55:19.361Z,24.30
2018-08-10T13:57:48.957Z,24.10
2018-08-10T14:00:24.881Z,24.10
2018-08-10T14:02:54.779Z,23.90
2018-08-10T14:05:24.177Z,23.60
2018-08-10T14:07:53.512Z,23.30
2018-08-10T14:10:22.280Z,23.20
2018-08-10T14:12:50.950Z,23.30
2018-08-10T14:15:19.578Z,23.20
2018-08-10T14:17:48.222Z,23.20
2018-08-10T14:20:16.857Z,23.30
2018-08-10T14:22:45.658Z,23.40
2018-08-10T14:25:14.322Z,23.40
2018-08-10T14:27:42.955Z,23.40
2018-08-10T14:30:13.916Z,23.40
2018-08-10T14:32:42.594Z,23.40
2018-08-10T14:35:11.642Z,23.50
2018-08-10T14:37:40.312Z,23.90
2018-08-10T14:40:11.051Z,24.40
2018-08-10T14:42:40.109Z,24.60
2018-08-10T14:45:12.041Z,25.10
2018-08-10T14:47:40.755Z,25.30
2018-08-10T14:50:11.343Z,24.90
2018-08-10T14:52:40.242Z,24.50
2018-08-10T14:55:10.637Z,24.20
2018-08-10T14:57:39.437Z,24.00
2018-08-10T15:00:13.583Z,23.50
2018-08-10T15:02:42.345Z,23.20
2018-08-10T15:05:11.130Z,23.20
2018-08-10T15:07:39.864Z,23.20
2018-08-10T15:10:11.015Z,23.30
2018-08-10T15:12:40.421Z,23.70
2018-08-10T15:15:11.997Z,23.90
2018-08-10T15:17:41.023Z,24.10
2018-08-10T15:20:12.327Z,24.60
2018-08-10T15:22:41.452Z,24.80
2018-08-10T15:25:10.837Z,25.00
2018-08-10T15:27:40.295Z,25.20
2018-08-10T15:30:11.823Z,25.30
2018-08-10T15:32:43.563Z,25.50
2018-08-10T15:35:14.795Z,25.70
2018-08-10T15:37:43.590Z,25.70
2018-08-10T15:40:14.450Z,25.80
2018-08-10T15:42:43.453Z,26.00
2018-08-10T15:45:13.542Z,25.60
2018-08-10T15:47:43.086Z,25.30
2018-08-10T15:50:12.520Z,25.30
2018-08-10T15:52:45.304Z,25.80
2018-08-10T15:55:17.436Z,26.50
2018-08-10T15:57:46.245Z,26.80
2018-08-10T16:00:20.409Z,27.10
2018-08-10T16:02:49.625Z,26.70
2018-08-10T16:05:18.823Z,27.10
2018-08-10T16:07:47.432Z,26.70
2018-08-10T16:10:16.479Z,26.20
2018-08-10T16:12:45.204Z,25.80
2018-08-10T16:15:15.451Z,25.80
2018-08-10T16:17:44.271Z,25.90
2018-08-10T16:20:22.040Z,25.90
2018-08-10T16:22:51.287Z,25.50
2018-08-10T16:25:19.953Z,25.10
2018-08-10T16:27:51.490Z,24.70
2018-08-10T16:30:20.630Z,24.40
2018-08-10T16:32:55.620Z,24.30
2018-08-10T16:35:24.502Z,24.30
2018-08-10T16:37:53.331Z,24.30
2018-08-10T16:40:22.206Z,24.20
2018-08-10T16:42:51.872Z,24.10
2018-08-10T16:45:20.967Z,24.10
2018-08-10T16:47:49.689Z,24.10
2018-08-10T16:50:19.285Z,24.00
2018-08-10T16:52:48.063Z,23.90
2018-08-10T16:55:18.093Z,23.60
2018-08-10T16:57:47.395Z,23.50
2018-08-10T17:00:18.860Z,23.40
2018-08-10T17:02:48.509Z,23.20
2018-08-10T17:05:17.379Z,23.10
2018-08-10T17:07:46.309Z,23.00
2018-08-10T17:10:15.092Z,23.00
2018-08-10T17:12:45.073Z,23.00
2018-08-10T17:15:17.428Z,23.00
2018-08-10T17:17:47.305Z,23.10
2018-08-10T17:20:16.636Z,23.10
2018-08-10T17:22:46.236Z,23.10
2018-08-10T17:25:17.813Z,23.10
2018-08-10T17:27:46.624Z,23.20
2018-08-10T17:30:17.807Z,23.20
2018-08-10T17:32:47.030Z,23.10
2018-08-10T17:35:17.122Z,23.10
2018-08-10T17:37:46.735Z,23.00
2018-08-10T17:40:15.573Z,22.90
2018-08-10T17:42:46.140Z,22.90
2018-08-10T17:45:16.997Z,22.80
2018-08-10T17:47:45.761Z,22.80
2018-08-10T17:50:17.559Z,22.70
2018-08-10T17:52:48.888Z,22.70
2018-08-10T17:55:18.567Z,22.70
2018-08-10T17:57:50.396Z,22.60
2018-08-10T18:00:21.378Z,22.60
2018-08-10T18:02:51.122Z,22.60
2018-08-10T18:05:19.856Z,22.70
2018-08-10T18:07:48.947Z,22.60
2018-08-10T18:10:20.948Z,22.50
2018-08-10T18:12:49.877Z,22.50
2018-08-10T18:15:19.942Z,22.40
2018-08-10T18:17:49.109Z,22.30
2018-08-10T18:20:19.702Z,22.30
2018-08-10T18:22:49.730Z,22.20
2018-08-10T18:25:19.729Z,22.20
2018-08-10T18:27:48.446Z,22.20
2018-08-10T18:30:22.379Z,22.10
2018-08-10T18:32:52.809Z,22.10
2018-08-10T18:35:21.908Z,22.10
2018-08-10T18:37:51.411Z,22.10
2018-08-10T18:40:21.222Z,22.10
2018-08-10T18:42:50.694Z,22.10
2018-08-10T18:45:20.420Z,22.00
2018-08-10T18:47:49.396Z,22.00
2018-08-10T18:50:19.388Z,22.00
2018-08-10T18:52:48.432Z,21.90
2018-08-10T18:55:19.761Z,21.90
2018-08-10T18:57:48.949Z,21.80
2018-08-10T19:00:19.452Z,21.80
2018-08-10T19:02:48.471Z,21.80
2018-08-10T19:05:17.944Z,21.80
2018-08-10T19:07:47.745Z,21.80
2018-08-10T19:10:19.756Z,21.70
2018-08-10T19:12:48.384Z,21.70
2018-08-10T19:15:17.773Z,21.70
2018-08-10T19:17:46.715Z,21.70
2018-08-10T19:20:16.195Z,21.70
2018-08-10T19:22:45.795Z,21.70
2018-08-10T19:25:15.255Z,21.60
2018-08-10T19:27:44.424Z,21.60
2018-08-10T19:30:16.597Z,21.60
2018-08-10T19:32:46.383Z,21.60
2018-08-10T19:35:15.340Z,21.50
2018-08-10T19:37:44.854Z,21.50
2018-08-10T19:40:14.855Z,21.50
2018-08-10T19:42:43.965Z,21.40
2018-08-10T19:45:14.992Z,21.40
2018-08-10T19:47:43.934Z,21.30
2018-08-10T19:50:14.021Z,21.30
2018-08-10T19:52:43.756Z,21.30
2018-08-10T19:55:14.832Z,21.30
2018-08-10T19:57:43.572Z,21.30
2018-08-10T20:00:14.129Z,21.30
2018-08-10T20:02:42.919Z,21.20
2018-08-10T20:05:11.953Z,21.20
2018-08-10T20:07:42.219Z,21.20
2018-08-10T20:10:12.966Z,21.20
2018-08-10T20:12:44.680Z,21.20
2018-08-10T20:15:16.153Z,21.20
2018-08-10T20:17:46.698Z,21.20
2018-08-10T20:20:43.496Z,21.20
2018-08-10T20:23:12.715Z,21.20
2018-08-10T20:25:46.429Z,21.20
2018-08-10T20:28:17.171Z,21.10
2018-08-10T20:30:46.338Z,21.10
2018-08-10T20:33:15.312Z,21.10
2018-08-10T20:35:44.667Z,21.10
2018-08-10T20:38:14.662Z,21.10
2018-08-10T20:40:46.110Z,21.00
2018-08-10T20:43:14.883Z,21.00
2018-08-10T20:45:55.144Z,20.90
2018-08-10T20:48:48.075Z,20.90
2018-08-10T20:55:45.979Z,20.70
2018-08-10T20:58:25.429Z,20.60
2018-08-10T21:01:21.178Z,20.50
2018-08-10T21:03:50.381Z,20.40
2018-08-10T21:06:19.855Z,20.40
2018-08-10T21:08:48.885Z,20.30
2018-08-10T21:11:17.639Z,20.30
2018-08-10T21:19:48.595Z,20.20
2018-08-10T21:22:21.786Z,20.10
2018-08-10T21:24:52.867Z,19.90
2018-08-10T21:27:56.182Z,19.80
2018-08-10T21:30:43.770Z,19.70
2018-08-10T21:33:13.031Z,19.60
2018-08-10T22:17:21.454Z,19.00
2018-08-10T22:19:54.016Z,18.90
2018-08-10T22:22:42.819Z,18.90
2018-08-10T22:25:11.466Z,18.80
2018-08-10T22:27:40.304Z,18.70
2018-08-10T22:30:08.934Z,18.70
2018-08-10T22:32:37.535Z,18.60
2018-08-10T22:35:06.392Z,18.60
2018-08-10T22:37:35.374Z,18.50
2018-08-10T22:40:04.865Z,18.40
2018-08-10T22:42:33.480Z,18.10
2018-08-10T22:45:02.057Z,17.90
2018-08-10T22:47:31.450Z,17.70
2018-08-10T22:49:59.994Z,17.50
2018-08-10T22:52:28.652Z,17.30
2018-08-10T22:54:57.607Z,17.00
2018-08-10T22:57:26.223Z,16.80
2018-08-10T22:59:54.779Z,16.70
2018-08-10T23:02:23.417Z,16.60
2018-08-10T23:04:51.974Z,16.50
2018-08-10T23:07:20.555Z,16.40
2018-08-10T23:09:49.212Z,16.30
2018-08-10T23:12:17.822Z,16.10
2018-08-10T23:14:46.379Z,16.10
2018-08-10T23:17:14.997Z,15.90
2018-08-10T23:19:43.580Z,15.90
2018-08-10T23:22:12.166Z,15.80
2018-08-10T23:24:40.754Z,15.70
2018-08-10T23:27:09.314Z,15.60
2018-08-10T23:29:37.911Z,15.60
2018-08-10T23:32:06.578Z,15.60
2018-08-10T23:34:35.268Z,15.50
2018-08-10T23:37:03.850Z,15.40
2018-08-10T23:39:32.410Z,15.40
2018-08-10T23:42:00.953Z,15.40
2018-08-10T23:44:29.512Z,15.30
2018-08-10T23:46:58.057Z,15.30
2018-08-10T23:49:26.677Z,15.40
2018-08-10T23:51:55.276Z,15.40
2018-08-10T23:54:23.871Z,15.30
2018-08-10T23:56:52.455Z,15.30
2018-08-10T23:59:21.070Z,15.30
